Time;durP1;ratioP1;P1;durP2;ratioP2;P2;SDS_P1;SDS_P2;PMS_P1;PMS_P2;Temp;Humidity;BMP_temperature;BMP_pressure;BME280_temperature;BME280_humidity;BME280_pressure;Samples;Min_cycle;Max_cycle;Signal;HPM_P1;HPM_P2
2023/02/27 00:00:55;;;;;;;1.75;1.48;;;5.50;74.90;;;;;;4865951;29;20468;-85
2023/02/27 00:03:21;;;;;;;1.40;1.30;;;5.50;74.90;;;;;;4849456;29;20048;-84
2023/02/27 00:05:47;;;;;;;1.67;1.58;;;5.50;75.00;;;;;;4849888;29;20041;-84
2023/02/27 00:08:13;;;;;;;1.40;1.25;;;5.50;75.00;;;;;;4880485;29;20152;-85
2023/02/27 00:10:39;;;;;;;2.38;1.55;;;5.50;75.00;;;;;;4881331;29;20373;-84
2023/02/27 00:13:05;;;;;;;1.35;1.25;;;5.50;75.10;;;;;;4849592;29;20442;-86
2023/02/27 00:15:31;;;;;;;1.40;1.30;;;5.50;75.10;;;;;;4865003;29;20120;-85
2023/02/27 00:17:58;;;;;;;1.83;1.33;;;5.50;75.10;;;;;;4880057;29;20489;-84
2023/02/27 00:20:25;;;;;;;1.50;1.30;;;5.40;75.10;;;;;;4865351;29;20037;-85
2023/02/27 00:22:51;;;;;;;1.45;1.35;;;5.40;75.10;;;;;;4880285;29;20029;-84
2023/02/27 00:25:17;;;;;;;1.65;1.55;;;5.40;75.10;;;;;;4849622;29;20093;-85
2023/02/27 00:27:43;;;;;;;1.75;1.40;;;5.30;75.10;;;;;;4880503;29;20093;-85
2023/02/27 00:30:12;;;;;;;1.67;1.58;;;5.30;75.10;;;;;;4849294;29;20078;-85
2023/02/27 00:32:39;;;;;;;1.60;1.30;;;5.30;75.10;;;;;;4880475;29;20037;-84
2023/02/27 00:35:06;;;;;;;1.77;1.60;;;5.30;75.10;;;;;;4864506;29;20064;-85
2023/02/27 00:37:33;;;;;;;1.73;1.50;;;5.30;75.20;;;;;;4864957;29;20055;-85
2023/02/27 00:39:59;;;;;;;1.52;1.42;;;5.30;75.20;;;;;;4880218;29;20036;-84
2023/02/27 00:42:26;;;;;;;1.60;1.48;;;5.30;75.20;;;;;;4864670;29;20492;-85
2023/02/27 00:44:51;;;;;;;1.50;1.40;;;5.20;75.10;;;;;;4864555;29;20054;-86
2023/02/27 00:47:17;;;;;;;1.70;1.50;;;5.30;75.20;;;;;;4879718;29;20025;-85
2023/02/27 00:49:43;;;;;;;1.60;1.50;;;5.20;75.10;;;;;;4864349;29;20037;-85
2023/02/27 00:52:09;;;;;;;1.50;1.40;;;5.20;75.10;;;;;;4848825;29;20036;-85
2023/02/27 00:54:35;;;;;;;1.73;1.60;;;5.20;75.10;;;;;;4864366;29;20111;-86
2023/02/27 00:57:01;;;;;;;1.52;1.42;;;5.20;75.20;;;;;;4864389;29;20048;-86
2023/02/27 00:59:27;;;;;;;1.83;1.40;;;5.20;75.20;;;;;;4849204;29;20483;-84
2023/02/27 01:01:53;;;;;;;2.03;1.60;;;5.20;75.20;;;;;;4879682;29;20097;-83
2023/02/27 01:04:19;;;;;;;2.05;1.70;;;5.20;75.30;;;;;;4864049;29;20573;-85
2023/02/27 01:06:44;;;;;;;1.60;1.50;;;5.10;75.30;;;;;;4879463;29;20033;-85
2023/02/27 01:09:10;;;;;;;1.58;1.48;;;5.10;75.30;;;;;;4864029;29;20069;-85
2023/02/27 01:11:36;;;;;;;1.50;1.40;;;5.10;75.30;;;;;;4864911;29;20028;-84
2023/02/27 01:14:02;;;;;;;2.22;1.63;;;5.10;75.30;;;;;;4848678;29;20037;-85
2023/02/27 01:16:28;;;;;;;1.77;1.67;;;5.10;75.30;;;;;;4864405;29;20037;-85
2023/02/27 01:18:54;;;;;;;2.20;1.90;;;5.00;75.30;;;;;;4879837;29;20437;-85
2023/02/27 01:21:22;;;;;;;1.75;1.60;;;5.00;75.30;;;;;;4863900;29;20029;-85
2023/02/27 01:23:48;;;;;;;1.60;1.50;;;5.00;75.40;;;;;;4879442;29;20068;-85
2023/02/27 01:26:16;;;;;;;2.25;1.92;;;5.00;75.40;;;;;;4864313;29;20037;-84
2023/02/27 01:28:42;;;;;;;1.88;1.67;;;5.00;75.40;;;;;;4848526;29;20044;-84
2023/02/27 01:31:08;;;;;;;1.58;1.48;;;5.00;75.40;;;;;;4864064;29;20084;-86
2023/02/27 01:33:34;;;;;;;1.92;1.73;;;4.90;75.30;;;;;;4879351;29;20150;-85
2023/02/27 01:36:00;;;;;;;1.92;1.67;;;4.90;75.30;;;;;;4848597;29;20044;-85
2023/02/27 01:38:26;;;;;;;1.65;1.55;;;4.90;75.40;;;;;;4849419;29;20041;-86
2023/02/27 01:40:52;;;;;;;1.60;1.50;;;4.90;75.40;;;;;;4864171;29;20043;-85
2023/02/27 01:43:20;;;;;;;1.90;1.70;;;4.80;75.30;;;;;;4864002;29;20033;-84
2023/02/27 01:45:47;;;;;;;1.60;1.50;;;4.90;75.40;;;;;;4864484;29;20037;-85
2023/02/27 01:48:26;;;;;;;1.90;1.80;;;4.80;75.40;;;;;;4864664;29;20053;-85
2023/02/27 01:51:08;;;;;;;2.65;1.70;;;4.80;75.40;;;;;;4867409;29;20029;-84
2023/02/27 01:53:37;;;;;;;1.50;1.40;;;4.80;75.50;;;;;;4883262;29;20040;-86
2023/02/27 01:56:15;;;;;;;1.58;1.48;;;4.70;75.40;;;;;;4882932;29;20048;-84
2023/02/27 01:58:43;;;;;;;1.60;1.50;;;4.70;75.50;;;;;;4883406;29;20037;-84
2023/02/27 02:01:09;;;;;;;1.70;1.60;;;4.70;75.50;;;;;;4882843;29;20123;-84
2023/02/27 02:03:49;;;;;;;1.88;1.77;;;4.70;75.50;;;;;;4867236;29;20088;-85
2023/02/27 02:06:15;;;;;;;1.63;1.50;;;4.70;75.50;;;;;;4882776;29;20032;-85
2023/02/27 02:08:44;;;;;;;1.98;1.60;;;4.60;75.50;;;;;;4883010;29;20041;-86
2023/02/27 02:11:12;;;;;;;1.48;1.38;;;4.60;75.50;;;;;;4866951;29;20036;-84
2023/02/27 02:13:39;;;;;;;1.83;1.45;;;4.60;75.50;;;;;;4882958;29;20115;-85
2023/02/27 02:16:32;;;;;;;3.10;2.15;;;4.60;75.50;;;;;;4867145;29;20033;-87
2023/02/27 02:19:22;;;;;;;1.80;1.67;;;4.60;75.50;;;;;;4882468;29;20033;-84
2023/02/27 02:22:18;;;;;;;1.52;1.42;;;4.50;75.50;;;;;;4882803;29;20529;-85
2023/02/27 02:25:03;;;;;;;1.65;1.55;;;4.50;75.60;;;;;;4882610;29;20043;-86
2023/02/27 02:27:51;;;;;;;1.50;1.40;;;4.50;75.60;;;;;;4867109;29;20128;-84
2023/02/27 02:30:25;;;;;;;1.50;1.40;;;4.50;75.60;;;;;;4883191;29;20056;-83
2023/02/27 02:33:18;;;;;;;1.60;1.50;;;4.50;75.60;;;;;;4882798;29;20032;-84
2023/02/27 02:36:09;;;;;;;1.50;1.40;;;4.40;75.60;;;;;;4867099;29;20041;-85
2023/02/27 02:38:46;;;;;;;1.55;1.40;;;4.40;75.60;;;;;;4866891;29;20037;-85
2023/02/27 02:41:36;;;;;;;1.60;1.50;;;4.40;75.60;;;;;;4882322;29;20056;-84
2023/02/27 02:44:23;;;;;;;1.50;1.40;;;4.30;75.60;;;;;;4882397;29;20033;-84
2023/02/27 02:47:17;;;;;;;1.80;1.70;;;4.40;76.30;;;;;;4882142;29;20036;-84
2023/02/27 02:49:55;;;;;;;2.28;1.60;;;4.30;75.60;;;;;;4881988;29;20033;-84
2023/02/27 02:52:50;;;;;;;1.67;1.58;;;4.30;75.60;;;;;;4881944;29;20037;-85
2023/02/27 02:55:33;;;;;;;1.80;1.70;;;4.20;75.60;;;;;;4881818;29;20123;-85
2023/02/27 02:58:44;;;;;;;2.10;1.90;;;4.20;75.60;;;;;;4866600;29;20030;-86
2023/02/27 03:01:44;;;;;;;1.50;1.40;;;4.20;75.60;;;;;;4864109;29;20029;-85
2023/02/27 03:04:13;;;;;;;2.15;1.92;;;4.20;75.70;;;;;;4849423;29;20137;-85
2023/02/27 03:07:03;;;;;;;1.70;1.60;;;4.20;75.70;;;;;;4865761;29;20132;-84
2023/02/27 03:10:05;;;;;;;1.83;1.55;;;4.20;75.70;;;;;;4866340;29;20097;-85
2023/02/27 03:12:33;;;;;;;1.63;1.50;;;4.10;75.60;;;;;;4864935;29;20119;-84
2023/02/27 03:15:10;;;;;;;1.98;1.60;;;4.10;75.70;;;;;;4862462;29;20041;-84
2023/02/27 03:17:51;;;;;;;1.65;1.55;;;4.10;75.70;;;;;;4881684;29;20386;-84
2023/02/27 03:20:31;;;;;;;2.60;1.83;;;4.00;75.60;;;;;;4866168;29;20048;-84
2023/02/27 03:23:03;;;;;;;2.45;2.00;;;4.10;75.80;;;;;;4881325;29;20104;-86
2023/02/27 03:25:31;;;;;;;1.85;1.60;;;4.00;75.70;;;;;;4866087;29;20037;-85
2023/02/27 03:28:02;;;;;;;2.22;1.70;;;4.00;75.70;;;;;;4881357;29;20037;-84
2023/02/27 03:30:36;;;;;;;1.60;1.50;;;4.00;75.80;;;;;;4880821;29;20029;-85
2023/02/27 03:33:14;;;;;;;1.90;1.70;;;4.00;75.80;;;;;;4881462;29;20025;-85
2023/02/27 03:35:49;;;;;;;1.83;1.67;;;4.00;75.80;;;;;;4865789;29;20035;-85
2023/02/27 03:38:59;;;;;;;1.98;1.75;;;4.00;75.80;;;;;;4865720;29;20423;-84
2023/02/27 03:41:35;;;;;;;2.35;1.50;;;3.90;75.70;;;;;;4864444;29;20036;-84
2023/02/27 03:44:34;;;;;;;1.92;1.65;;;3.90;75.70;;;;;;4867350;29;20123;-86
2023/02/27 03:47:00;;;;;;;2.08;1.60;;;3.90;75.70;;;;;;4865415;29;20039;-84
2023/02/27 03:49:26;;;;;;;2.35;1.60;;;3.90;75.70;;;;;;4849978;29;20112;-85
2023/02/27 03:51:52;;;;;;;1.60;1.50;;;3.80;75.60;;;;;;4849857;29;20041;-84
2023/02/27 03:54:40;;;;;;;1.85;1.70;;;3.80;76.00;;;;;;4866105;29;20099;-83
2023/02/27 03:57:07;;;;;;;3.55;2.10;;;3.80;75.70;;;;;;4865699;29;20063;-84
2023/02/27 03:59:36;;;;;;;1.73;1.63;;;3.80;75.70;;;;;;4881361;29;20590;-84
2023/02/27 04:02:03;;;;;;;1.60;1.50;;;3.80;75.70;;;;;;4880930;29;20029;-84
2023/02/27 04:04:31;;;;;;;2.50;2.00;;;3.80;75.80;;;;;;4880470;29;20045;-83
2023/02/27 04:07:40;;;;;;;1.70;1.60;;;3.70;75.60;;;;;;4881413;29;20148;-83
2023/02/27 04:10:15;;;;;;;2.10;1.90;;;3.70;75.60;;;;;;4880435;29;20040;-84
2023/02/27 04:12:46;;;;;;;;;;;3.70;75.60;;;;;;4880441;29;20120;-84
2023/02/27 04:15:50;;;;;;;1.73;1.60;;;3.60;75.60;;;;;;4880791;29;19979;-85
2023/02/27 04:18:31;;;;;;;3.83;2.03;;;3.60;75.60;;;;;;4881058;29;20170;-85
2023/02/27 04:21:27;;;;;;;2.05;1.80;;;3.60;75.70;;;;;;4865057;29;20033;-85
2023/02/27 04:24:02;;;;;;;1.90;1.80;;;3.60;75.70;;;;;;4880318;29;20036;-85
2023/02/27 04:26:44;;;;;;;2.63;2.38;;;3.50;75.70;;;;;;4880747;29;20044;-84
2023/02/27 04:29:17;;;;;;;2.15;1.92;;;3.50;75.80;;;;;;4864974;29;20036;-84
2023/02/27 04:32:12;;;;;;;1.88;1.70;;;3.50;75.80;;;;;;4864864;29;20443;-84
2023/02/27 04:35:03;;;;;;;2.13;1.97;;;3.50;75.90;;;;;;4864435;29;20045;-84
2023/02/27 04:37:53;;;;;;;1.95;1.77;;;3.50;75.90;;;;;;4864101;29;20045;-83
2023/02/27 04:40:28;;;;;;;2.58;2.05;;;3.50;75.90;;;;;;4879558;29;20553;-84
2023/02/27 04:42:57;;;;;;;2.47;1.95;;;3.40;75.90;;;;;;4880497;29;20112;-83
2023/02/27 04:45:26;;;;;;;1.85;1.70;;;3.40;75.90;;;;;;4864678;29;20096;-84
2023/02/27 04:47:57;;;;;;;2.10;1.90;;;3.40;75.90;;;;;;4879691;29;20112;-84
2023/02/27 04:50:36;;;;;;;2.28;2.00;;;3.40;75.90;;;;;;4879714;29;20036;-85
2023/02/27 04:53:24;;;;;;;2.42;1.80;;;3.40;75.90;;;;;;4864471;29;20025;-87
2023/02/27 04:55:55;;;;;;;2.15;1.75;;;3.40;75.90;;;;;;4879921;29;20032;-84
2023/02/27 04:58:28;;;;;;;1.85;1.75;;;3.30;75.90;;;;;;4864613;29;20039;-85
2023/02/27 05:01:02;;;;;;;1.90;1.80;;;3.30;75.90;;;;;;4880006;29;20029;-83
2023/02/27 05:03:34;;;;;;;1.85;1.70;;;3.30;75.90;;;;;;4879744;29;20045;-84
2023/02/27 05:06:01;;;;;;;2.33;1.83;;;3.30;75.90;;;;;;4880766;29;20093;-84
2023/02/27 05:08:42;;;;;;;2.15;1.73;;;3.30;76.00;;;;;;4879254;29;20041;-84
2023/02/27 05:11:16;;;;;;;1.90;1.80;;;3.30;76.00;;;;;;4879708;29;20033;-85
2023/02/27 05:13:48;;;;;;;3.75;1.95;;;3.20;75.90;;;;;;4879757;29;20085;-84
2023/02/27 05:16:26;;;;;;;2.15;1.90;;;3.20;75.90;;;;;;4879469;29;20037;-85
2023/02/27 05:18:54;;;;;;;1.90;1.70;;;3.20;75.90;;;;;;4879587;29;20032;-85
2023/02/27 05:21:28;;;;;;;2.00;1.80;;;3.20;76.00;;;;;;4863936;29;20058;-85
2023/02/27 05:24:02;;;;;;;2.03;1.90;;;3.20;76.00;;;;;;4863192;29;20064;-84
2023/02/27 05:26:39;;;;;;;1.80;1.70;;;3.20;76.00;;;;;;4864024;29;20065;-84
2023/02/27 05:29:12;;;;;;;3.03;1.95;;;3.20;76.00;;;;;;4879486;29;20045;-83
2023/02/27 05:31:55;;;;;;;2.00;1.80;;;3.20;76.00;;;;;;4879143;29;20037;-84
2023/02/27 05:34:56;;;;;;;1.88;1.70;;;3.10;75.90;;;;;;4879216;29;20447;-86
2023/02/27 05:37:42;;;;;;;2.22;2.00;;;3.10;75.90;;;;;;4862278;29;20033;-84
2023/02/27 05:40:12;;;;;;;2.42;2.13;;;3.10;75.90;;;;;;4878974;29;20045;-85
2023/02/27 05:42:43;;;;;;;2.03;1.90;;;3.10;75.90;;;;;;4863627;29;20438;-84
2023/02/27 05:45:16;;;;;;;2.10;1.90;;;3.00;76.00;;;;;;4863720;29;20029;-85
2023/02/27 05:47:46;;;;;;;2.22;1.95;;;3.10;76.00;;;;;;4879277;29;20513;-84
2023/02/27 05:50:16;;;;;;;3.45;2.00;;;3.00;76.00;;;;;;4864550;29;20497;-83
2023/02/27 05:52:43;;;;;;;3.10;2.08;;;3.00;76.00;;;;;;4863533;29;20025;-85
2023/02/27 05:55:48;;;;;;;2.92;2.45;;;3.00;76.00;;;;;;4863867;29;20029;-85
2023/02/27 05:58:35;;;;;;;2.45;2.10;;;3.00;76.00;;;;;;4878617;29;20029;-85
2023/02/27 06:01:06;;;;;;;2.40;2.20;;;3.00;76.00;;;;;;4877561;29;20053;-85
2023/02/27 06:03:35;;;;;;;2.65;2.05;;;2.90;76.00;;;;;;4863428;29;20125;-85
2023/02/27 06:06:05;;;;;;;3.58;2.33;;;2.90;76.00;;;;;;4878757;29;20048;-84
2023/02/27 06:08:31;;;;;;;2.28;2.00;;;2.90;76.00;;;;;;4863599;29;20108;-85
2023/02/27 06:10:57;;;;;;;2.60;2.30;;;2.90;76.00;;;;;;4848465;29;20124;-84
2023/02/27 06:13:23;;;;;;;2.60;2.10;;;2.90;76.00;;;;;;4878756;29;20533;-84
2023/02/27 06:15:49;;;;;;;2.25;1.95;;;2.90;76.00;;;;;;4878816;29;20505;-84
2023/02/27 06:18:16;;;;;;;2.53;2.17;;;2.90;76.00;;;;;;4878460;29;20128;-82
2023/02/27 06:20:43;;;;;;;3.95;2.25;;;2.90;76.00;;;;;;4878288;29;20363;-84
2023/02/27 06:23:09;;;;;;;2.00;1.80;;;2.80;76.00;;;;;;4878324;29;20041;-84
2023/02/27 06:25:35;;;;;;;2.42;2.20;;;2.90;76.00;;;;;;4862791;29;20044;-84
2023/02/27 06:28:01;;;;;;;2.90;2.20;;;2.90;76.00;;;;;;4862730;29;20040;-86
2023/02/27 06:30:27;;;;;;;2.20;2.00;;;2.90;76.00;;;;;;4878196;29;20033;-85
2023/02/27 06:32:53;;;;;;;2.97;1.98;;;2.80;75.90;;;;;;4862392;29;20610;-84
2023/02/27 06:35:20;;;;;;;3.42;2.20;;;2.80;75.90;;;;;;4880430;29;20169;-84
2023/02/27 06:37:45;;;;;;;2.67;1.88;;;2.90;75.90;;;;;;4866471;29;20037;-85
2023/02/27 06:40:12;;;;;;;2.65;2.22;;;2.80;75.80;;;;;;4851153;29;20048;-83
2023/02/27 06:42:39;;;;;;;2.30;2.10;;;2.80;75.80;;;;;;4881911;29;20490;-84
2023/02/27 06:45:05;;;;;;;2.30;2.10;;;2.90;75.90;;;;;;4865915;29;20037;-84
2023/02/27 06:47:31;;;;;;;2.40;2.20;;;2.80;75.80;;;;;;4866847;29;20052;-82
2023/02/27 06:49:57;;;;;;;2.40;2.20;;;2.80;75.80;;;;;;4850678;29;20071;-83
2023/02/27 06:52:22;;;;;;;2.20;2.00;;;2.80;75.80;;;;;;4881836;29;20122;-83
2023/02/27 06:54:48;;;;;;;2.00;1.88;;;2.80;75.80;;;;;;4866245;29;20510;-83
2023/02/27 06:57:14;;;;;;;2.13;1.92;;;2.80;75.80;;;;;;4866102;29;20041;-83
2023/02/27 06:59:41;;;;;;;2.45;2.20;;;2.80;75.80;;;;;;4865700;29;20029;-81
2023/02/27 07:02:13;;;;;;;2.83;2.35;;;2.90;75.80;;;;;;4850461;29;20089;-83
2023/02/27 07:04:39;;;;;;;3.05;2.22;;;2.90;76.50;;;;;;4865505;29;20215;-82
2023/02/27 07:07:05;;;;;;;2.40;2.20;;;2.90;75.80;;;;;;4850163;29;20081;-82
2023/02/27 07:09:31;;;;;;;2.28;2.08;;;2.80;75.70;;;;;;4850070;29;20037;-82
2023/02/27 07:11:57;;;;;;;2.22;2.00;;;2.80;75.70;;;;;;4865329;29;20044;-82
2023/02/27 07:14:24;;;;;;;2.30;2.10;;;2.90;75.80;;;;;;4880972;29;20041;-82
2023/02/27 07:16:53;;;;;;;2.55;2.30;;;2.80;75.70;;;;;;4865328;29;20133;-82
2023/02/27 07:19:20;;;;;;;2.80;2.15;;;2.80;75.70;;;;;;4865575;29;20120;-81
2023/02/27 07:21:46;;;;;;;2.40;2.20;;;2.90;75.80;;;;;;4881094;29;20424;-80
2023/02/27 07:24:12;;;;;;;4.20;2.35;;;2.90;75.80;;;;;;4865666;29;20515;-83
2023/02/27 07:26:38;;;;;;;2.80;2.45;;;2.80;75.70;;;;;;4880863;29;20049;-85
2023/02/27 07:29:05;;;;;;;2.58;2.15;;;2.90;75.80;;;;;;4865101;29;20037;-83
2023/02/27 07:31:31;;;;;;;3.10;2.22;;;2.90;75.80;;;;;;4880598;29;20041;-82
2023/02/27 07:33:56;;;;;;;2.38;2.17;;;2.90;75.70;;;;;;4865409;29;20064;-81
2023/02/27 07:36:22;;;;;;;2.28;1.98;;;2.90;75.70;;;;;;4865050;29;20372;-82
2023/02/27 07:38:49;;;;;;;2.28;2.08;;;2.90;75.70;;;;;;4864990;29;20030;-82
2023/02/27 07:41:14;;;;;;;2.38;2.17;;;2.90;75.70;;;;;;4881578;29;20117;-82
2023/02/27 07:43:40;;;;;;;2.15;2.05;;;2.90;75.70;;;;;;4865207;29;20467;-83
2023/02/27 07:46:06;;;;;;;3.05;1.95;;;2.90;75.70;;;;;;4864075;29;20482;-83
2023/02/27 07:48:33;;;;;;;2.70;2.50;;;2.90;75.70;;;;;;4880140;29;20060;-84
2023/02/27 07:50:59;;;;;;;2.65;2.30;;;2.90;75.70;;;;;;4849579;29;20044;-83
2023/02/27 07:53:25;;;;;;;2.30;2.10;;;2.90;75.70;;;;;;4880376;29;20104;-83
2023/02/27 07:55:51;;;;;;;2.20;2.00;;;2.90;75.80;;;;;;4880007;29;20033;-83
2023/02/27 07:58:17;;;;;;;1.90;1.80;;;2.90;75.80;;;;;;4880071;29;20490;-82
2023/02/27 08:00:43;;;;;;;2.05;1.88;;;2.90;75.70;;;;;;4880364;29;20045;-82
2023/02/27 08:03:09;;;;;;;3.72;2.13;;;2.90;75.70;;;;;;4864932;29;20227;-83
2023/02/27 08:05:35;;;;;;;2.28;2.10;;;3.00;75.80;;;;;;4879967;29;20043;-83
2023/02/27 08:08:01;;;;;;;2.63;2.00;;;3.00;75.80;;;;;;4879580;29;20112;-81
2023/02/27 08:10:27;;;;;;;2.17;1.98;;;2.90;75.70;;;;;;4864659;29;20105;-84
2023/02/27 08:12:53;;;;;;;2.55;2.08;;;3.00;75.80;;;;;;4864547;29;20461;-84
2023/02/27 08:15:19;;;;;;;2.30;1.95;;;3.00;75.80;;;;;;4849856;29;20084;-83
2023/02/27 08:17:46;;;;;;;2.08;1.88;;;3.00;75.70;;;;;;4849150;29;20403;-84
2023/02/27 08:20:12;;;;;;;2.38;2.13;;;3.00;75.70;;;;;;4865119;29;20044;-83
2023/02/27 08:22:42;;;;;;;2.35;2.15;;;3.00;75.70;;;;;;4849069;29;20052;-84
2023/02/27 08:25:12;;;;;;;2.60;2.40;;;3.00;75.70;;;;;;4864865;29;20029;-84
2023/02/27 08:27:39;;;;;;;3.05;1.98;;;3.00;75.70;;;;;;4864959;29;20053;-85
2023/02/27 08:30:07;;;;;;;2.17;1.98;;;3.10;75.80;;;;;;4879961;29;20029;-84
2023/02/27 08:32:33;;;;;;;2.30;2.10;;;3.00;76.30;;;;;;4864376;29;20124;-84
2023/02/27 08:34:59;;;;;;;2.92;2.20;;;3.10;75.70;;;;;;4880129;29;20037;-84
2023/02/27 08:37:25;;;;;;;2.63;2.05;;;3.10;75.70;;;;;;4864684;29;20047;-85
2023/02/27 08:39:51;;;;;;;2.65;2.13;;;3.10;75.70;;;;;;4864419;29;20037;-84
2023/02/27 08:42:16;;;;;;;2.55;2.05;;;3.10;75.70;;;;;;4864715;29;20115;-85
2023/02/27 08:44:42;;;;;;;2.15;1.80;;;3.10;75.70;;;;;;4879762;29;20033;-85
2023/02/27 08:47:08;;;;;;;2.22;2.03;;;3.10;75.70;;;;;;4879887;29;20048;-85
2023/02/27 08:49:34;;;;;;;2.58;2.00;;;3.10;75.70;;;;;;4880050;29;20065;-86
2023/02/27 08:52:00;;;;;;;2.25;2.03;;;3.10;75.70;;;;;;4864935;29;20033;-85
2023/02/27 08:54:26;;;;;;;2.95;2.10;;;3.20;75.70;;;;;;4865032;29;20044;-84
2023/02/27 08:56:51;;;;;;;3.22;2.25;;;3.20;75.70;;;;;;4879644;29;20037;-84
2023/02/27 08:59:17;;;;;;;2.03;1.88;;;3.20;75.70;;;;;;4864280;29;20082;-84
2023/02/27 09:01:43;;;;;;;2.95;1.95;;;3.20;75.70;;;;;;4881002;29;20356;-84
2023/02/27 09:04:10;;;;;;;2.40;2.20;;;3.20;75.70;;;;;;4863949;29;20198;-84
2023/02/27 09:06:36;;;;;;;3.03;2.20;;;3.20;75.70;;;;;;4879301;29;20069;-84
2023/02/27 09:09:03;;;;;;;2.55;2.03;;;3.30;75.70;;;;;;4864142;29;20112;-84
2023/02/27 09:11:29;;;;;;;2.47;2.20;;;3.30;75.70;;;;;;4879436;29;20033;-84
2023/02/27 09:13:56;;;;;;;2.30;2.10;;;3.30;75.70;;;;;;4879345;29;20037;-84
2023/02/27 09:16:22;;;;;;;2.97;2.10;;;3.30;75.70;;;;;;4863698;29;20479;-84
2023/02/27 09:18:49;;;;;;;3.50;2.22;;;3.30;75.70;;;;;;4863438;29;20039;-83
2023/02/27 09:21:15;;;;;;;2.80;2.22;;;3.30;75.70;;;;;;4878994;29;20025;-84
2023/02/27 09:23:40;;;;;;;2.88;2.10;;;3.40;75.80;;;;;;4863986;29;20077;-84
2023/02/27 09:26:08;;;;;;;2.33;2.13;;;3.40;75.70;;;;;;4863933;29;20041;-84
2023/02/27 09:28:35;;;;;;;2.55;1.80;;;3.40;75.80;;;;;;4879474;29;20051;-84
2023/02/27 09:31:02;;;;;;;2.53;2.15;;;3.50;75.80;;;;;;4863702;29;20080;-84
2023/02/27 09:33:28;;;;;;;2.63;2.17;;;3.50;75.80;;;;;;4879132;29;20025;-83
2023/02/27 09:35:54;;;;;;;2.25;2.05;;;3.50;75.80;;;;;;4863402;29;20041;-84
2023/02/27 09:38:20;;;;;;;2.25;2.03;;;3.50;75.80;;;;;;4878889;29;20037;-83
2023/02/27 09:40:49;;;;;;;2.10;1.90;;;3.60;75.50;;;;;;4863442;29;20359;-83
2023/02/27 09:43:24;;;;;;;2.90;2.08;;;3.60;75.80;;;;;;4863699;29;20040;-83
2023/02/27 09:45:51;;;;;;;;;;;3.70;75.90;;;;;;4878943;29;20044;-84
2023/02/27 09:48:28;;;;;;;1.88;1.73;;;3.70;75.70;;;;;;4863014;29;19915;-83
2023/02/27 09:50:55;;;;;;;2.10;1.90;;;3.80;75.60;;;;;;4880075;29;20037;-83
2023/02/27 09:53:37;;;;;;;1.75;1.65;;;3.80;75.60;;;;;;4878469;29;20048;-83
2023/02/27 09:56:14;;;;;;;2.03;1.83;;;3.90;75.70;;;;;;4863325;29;20043;-84
2023/02/27 09:58:42;;;;;;;2.30;2.00;;;3.90;75.60;;;;;;4863364;29;20029;-83
2023/02/27 10:01:26;;;;;;;2.83;1.95;;;4.00;75.60;;;;;;4878864;29;20040;-83
2023/02/27 10:04:17;;;;;;;1.92;1.77;;;4.10;75.70;;;;;;4863171;29;20053;-84
2023/02/27 10:06:56;;;;;;;2.42;1.80;;;4.10;75.70;;;;;;4863423;29;20037;-84
2023/02/27 10:09:43;;;;;;;2.20;1.98;;;4.20;75.70;;;;;;4879754;29;20097;-83
2023/02/27 10:12:33;;;;;;;1.90;1.70;;;4.20;75.80;;;;;;4866999;29;20056;-83
2023/02/27 10:15:04;;;;;;;2.35;1.80;;;4.30;75.80;;;;;;4882428;29;20048;-84
2023/02/27 10:17:40;;;;;;;2.00;1.77;;;4.30;75.70;;;;;;4883454;29;20041;-84
2023/02/27 10:20:21;;;;;;;2.58;1.90;;;4.40;75.80;;;;;;4882405;29;20040;-85
2023/02/27 10:22:50;;;;;;;1.80;1.70;;;4.40;75.70;;;;;;4882318;29;20033;-83
2023/02/27 10:25:18;;;;;;;1.90;1.70;;;4.50;75.80;;;;;;4881856;29;20048;-85
2023/02/27 10:27:46;;;;;;;1.98;1.70;;;4.60;75.70;;;;;;4882085;29;20044;-83
2023/02/27 10:30:24;;;;;;;1.90;1.80;;;4.70;75.80;;;;;;4882225;29;20104;-83
2023/02/27 10:33:16;;;;;;;2.03;1.88;;;4.70;75.80;;;;;;4881854;29;20029;-84
2023/02/27 10:35:44;;;;;;;1.80;1.70;;;4.80;75.80;;;;;;4881764;29;20049;-83
2023/02/27 10:38:39;;;;;;;1.73;1.63;;;4.90;75.70;;;;;;4883048;29;20033;-83
2023/02/27 10:41:08;;;;;;;2.70;1.80;;;5.00;75.80;;;;;;4866303;29;20061;-84
2023/02/27 10:43:34;;;;;;;1.90;1.70;;;5.10;75.70;;;;;;4881826;29;20033;-83
2023/02/27 10:46:03;;;;;;;2.58;2.05;;;5.10;75.60;;;;;;4881610;29;20037;-84
2023/02/27 10:48:31;;;;;;;1.95;1.75;;;5.20;75.70;;;;;;4882832;29;20064;-86
2023/02/27 10:51:23;;;;;;;1.80;1.70;;;5.30;75.70;;;;;;4866403;29;20080;-83
2023/02/27 10:53:51;;;;;;;2.00;1.80;;;5.40;75.80;;;;;;4881766;29;20481;-84
2023/02/27 10:56:25;;;;;;;2.47;1.75;;;5.40;75.60;;;;;;4851049;29;20486;-83
2023/02/27 10:59:26;;;;;;;2.40;2.20;;;5.50;75.70;;;;;;4881222;29;20033;-83
2023/02/27 11:02:05;;;;;;;1.92;1.73;;;5.60;75.70;;;;;;4881847;29;20044;-84
2023/02/27 11:04:33;;;;;;;2.13;1.73;;;5.70;75.60;;;;;;4880963;29;20052;-84
2023/02/27 11:07:01;;;;;;;1.70;1.60;;;5.80;75.60;;;;;;4882242;29;20561;-83
2023/02/27 11:09:31;;;;;;;1.83;1.50;;;5.90;75.70;;;;;;4865544;29;20044;-82
2023/02/27 11:12:09;;;;;;;1.92;1.70;;;5.90;75.60;;;;;;4865395;29;20431;-81
2023/02/27 11:14:48;;;;;;;1.98;1.70;;;6.10;75.70;;;;;;4880809;29;20169;-81
2023/02/27 11:17:31;;;;;;;1.55;1.45;;;6.10;75.60;;;;;;4881266;29;20390;-82
2023/02/27 11:19:59;;;;;;;2.08;1.60;;;6.20;75.60;;;;;;4865295;29;20084;-83
2023/02/27 11:22:29;;;;;;;2.80;1.70;;;6.30;75.50;;;;;;4880122;29;20154;-83
2023/02/27 11:25:19;;;;;;;1.75;1.65;;;6.40;75.50;;;;;;4865061;29;20501;-82
2023/02/27 11:27:46;;;;;;;2.17;1.60;;;6.40;75.50;;;;;;4865018;29;20043;-82
2023/02/27 11:30:26;;;;;;;1.50;1.40;;;6.50;75.40;;;;;;4880620;29;20029;-82
2023/02/27 11:32:54;;;;;;;2.15;1.70;;;6.60;75.50;;;;;;4880764;29;20033;-83
2023/02/27 11:35:35;;;;;;;2.05;1.65;;;6.60;75.40;;;;;;4865290;29;20033;-83
2023/02/27 11:38:04;;;;;;;1.60;1.50;;;6.70;75.50;;;;;;4865309;29;20124;-81
2023/02/27 11:40:38;;;;;;;1.65;1.50;;;6.70;75.40;;;;;;4880237;29;20028;-80
2023/02/27 11:43:18;;;;;;;1.55;1.45;;;6.80;75.50;;;;;;4880886;29;20040;-81
2023/02/27 11:45:59;;;;;;;1.80;1.50;;;6.90;75.60;;;;;;4880409;29;20474;-81
2023/02/27 11:48:31;;;;;;;1.60;1.50;;;6.90;75.60;;;;;;4880331;29;20100;-84
2023/02/27 11:51:10;;;;;;;1.58;1.40;;;7.00;75.60;;;;;;4880804;29;20084;-84
2023/02/27 11:53:54;;;;;;;1.40;1.30;;;7.00;75.60;;;;;;4880571;29;20032;-85
2023/02/27 11:56:25;;;;;;;1.63;1.52;;;7.10;75.60;;;;;;4865219;29;20033;-84
2023/02/27 11:59:01;;;;;;;2.80;1.60;;;7.10;75.60;;;;;;4880551;29;20029;-84
2023/02/27 12:01:37;;;;;;;1.80;1.40;;;7.20;75.70;;;;;;4880933;29;20030;-84
2023/02/27 12:04:11;;;;;;;1.80;1.70;;;7.20;75.60;;;;;;4880305;29;20076;-84
2023/02/27 12:07:09;;;;;;;2.25;1.50;;;7.30;75.70;;;;;;4865677;29;20538;-83
2023/02/27 12:09:57;;;;;;;2.15;1.50;;;7.30;75.80;;;;;;4864252;29;20041;-84
2023/02/27 12:12:46;;;;;;;1.73;1.55;;;7.30;75.70;;;;;;4865210;29;20382;-84
2023/02/27 12:15:41;;;;;;;1.85;1.30;;;7.40;75.80;;;;;;4864732;29;20044;-84
2023/02/27 12:18:25;;;;;;;1.52;1.40;;;7.40;75.70;;;;;;4864923;29;20132;-84
2023/02/27 12:21:06;;;;;;;2.05;1.40;;;7.50;75.80;;;;;;4880913;29;20058;-84
2023/02/27 12:23:42;;;;;;;1.58;1.45;;;7.50;75.80;;;;;;4864827;29;20124;-84
2023/02/27 12:26:16;;;;;;;1.48;1.38;;;7.60;75.90;;;;;;4865268;29;20041;-84
2023/02/27 12:29:11;;;;;;;1.23;1.23;;;7.60;75.90;;;;;;4879708;29;20168;-83
2023/02/27 12:31:43;;;;;;;1.55;1.45;;;7.70;75.90;;;;;;4879848;29;20108;-83
2023/02/27 12:34:29;;;;;;;1.50;1.40;;;7.80;75.90;;;;;;4879600;29;20141;-83
2023/02/27 12:37:10;;;;;;;1.58;1.48;;;7.80;75.90;;;;;;4879283;29;20108;-83
2023/02/27 12:39:36;;;;;;;1.70;1.50;;;7.90;75.90;;;;;;4864345;29;20040;-83
2023/02/27 12:42:24;;;;;;;1.45;1.35;;;7.90;75.90;;;;;;4864237;29;20092;-85
2023/02/27 12:45:17;;;;;;;1.50;1.40;;;8.00;76.00;;;;;;4879471;29;20101;-83
2023/02/27 12:48:07;;;;;;;1.50;1.40;;;8.00;75.90;;;;;;4863996;29;20081;-83
2023/02/27 12:50:51;;;;;;;1.92;1.40;;;8.10;75.90;;;;;;4880027;29;20088;-84
2023/02/27 12:53:51;;;;;;;1.83;1.40;;;8.10;75.90;;;;;;4863739;29;20032;-83
2023/02/27 12:56:20;;;;;;;1.73;1.30;;;8.20;75.90;;;;;;4863858;29;20040;-82
2023/02/27 12:59:18;;;;;;;1.92;1.40;;;8.30;75.90;;;;;;4879093;29;20124;-83
2023/02/27 13:01:57;;;;;;;2.05;1.40;;;8.30;76.00;;;;;;4863815;29;20087;-83
2023/02/27 13:04:26;;;;;;;1.40;1.30;;;8.30;75.80;;;;;;4878946;29;20132;-83
2023/02/27 13:07:03;;;;;;;2.38;1.50;;;8.40;75.90;;;;;;4863648;29;20088;-83
2023/02/27 13:09:50;;;;;;;1.60;1.50;;;8.50;76.00;;;;;;4879372;29;20505;-84
2023/02/27 13:12:41;;;;;;;1.50;1.40;;;8.50;76.00;;;;;;4880159;29;20160;-83
2023/02/27 13:15:39;;;;;;;1.58;1.48;;;8.50;76.00;;;;;;4878875;29;20032;-86
2023/02/27 13:18:36;;;;;;;1.27;1.20;;;8.60;76.10;;;;;;4863436;29;20055;-85
2023/02/27 13:21:32;;;;;;;1.45;1.35;;;8.60;76.00;;;;;;4878722;29;20088;-84
2023/02/27 13:24:16;;;;;;;1.63;1.30;;;8.70;76.10;;;;;;4878928;29;20052;-81
2023/02/27 13:26:50;;;;;;;1.70;1.50;;;8.80;76.20;;;;;;4863448;29;20127;-81
2023/02/27 13:29:19;;;;;;;1.40;1.30;;;8.80;76.20;;;;;;4878561;29;20474;-81
2023/02/27 13:31:58;;;;;;;1.38;1.30;;;8.90;76.30;;;;;;4878274;29;20029;-82